Fontana, California
Current Conditions -  °F | °C
As of 9:28 PM on Monday 26 Jan 2015 (Local Time) from KONT Reporting Station
Overcast Overcast  
Wind Chill: 55°   Ceiling: 4600
Heat Index: 55°   Visibility: 10mi
Dew Point: 52°   Wind: 5mph
Humidity: 89%   Direction: 240°WSW
Pressure: 30.1"   Gusts: NA
Location:  34.1°N, 117.43°W
Report Text: KONT 270528Z 24004KT 10SM FEW008 SCT022 OVC046 13/11 A3010 RMK AO2 SCT V BKN T01280111
Loading
Personal Weather Stations






























Interactive Weather Map New forecast layout! Learn more

10-Day Weather Forecast

Advertisements
Track Severe Weather on mobile